Time;durP1;ratioP1;P1;durP2;ratioP2;P2;SDS_P1;SDS_P2;PMS_P1;PMS_P2;Temp;Humidity;BMP_temperature;BMP_pressure;BME280_temperature;BME280_humidity;BME280_pressure;Samples;Min_cycle;Max_cycle;Signal;HPM_P1;HPM_P2
2022/06/21 00:01:05;;;;;;;5.47;2.53;;;;;;;13.01;64.65;101628.88;5060125;28;20384;-75
2022/06/21 00:03:30;;;;;;;5.03;2.63;;;;;;;13.01;64.01;101630.63;5062111;28;20035;-75
2022/06/21 00:05:57;;;;;;;6.70;2.58;;;;;;;12.99;64.17;101624.56;5060648;28;20036;-74
2022/06/21 00:08:35;;;;;;;5.57;2.72;;;;;;;12.94;64.30;101627.28;5062848;28;20033;-75
2022/06/21 00:11:01;;;;;;;5.75;3.10;;;;;;;12.90;64.25;101620.41;5063567;28;20100;-74
2022/06/21 00:13:32;;;;;;;5.30;2.83;;;;;;;12.89;64.13;101619.56;5062891;28;20085;-75
2022/06/21 00:16:07;;;;;;;5.80;3.00;;;;;;;12.88;64.60;101628.31;5065304;28;20036;-75
2022/06/21 00:18:36;;;;;;;4.63;3.05;;;;;;;12.81;65.28;101626.72;5060117;28;20036;-75
2022/06/21 00:21:01;;;;;;;5.85;3.03;;;;;;;12.69;66.13;101632.22;5061896;28;20039;-75
2022/06/21 00:23:30;;;;;;;5.78;2.78;;;;;;;12.62;66.58;101641.09;5062938;28;20039;-75
2022/06/21 00:25:56;;;;;;;5.28;3.17;;;;;;;12.55;66.80;101633.38;5063387;28;20040;-75
2022/06/21 00:28:22;;;;;;;5.20;3.25;;;;;;;12.51;67.14;101626.50;5062523;28;20380;-74
2022/06/21 00:30:49;;;;;;;4.75;3.08;;;;;;;12.54;66.41;101638.63;5065915;28;20538;-75
2022/06/21 00:33:17;;;;;;;6.72;3.40;;;;;;;12.55;66.16;101624.69;5058629;28;20033;-74
2022/06/21 00:35:47;;;;;;;6.45;3.17;;;;;;;12.54;65.72;101623.81;5061058;28;20067;-75
2022/06/21 00:38:14;;;;;;;6.43;3.20;;;;;;;12.55;66.41;101614.25;5065903;28;20541;-75
2022/06/21 00:40:39;;;;;;;5.50;3.28;;;;;;;12.51;67.09;101618.66;5063990;28;20029;-74
2022/06/21 00:43:18;;;;;;;4.60;3.08;;;;;;;12.44;67.08;101620.53;5063277;28;20029;-75
2022/06/21 00:45:46;;;;;;;7.28;3.35;;;;;;;12.40;67.87;101631.09;5059550;28;20043;-75
2022/06/21 00:48:16;;;;;;;6.20;3.30;;;;;;;12.40;67.19;101620.66;5063976;28;20033;-75
2022/06/21 00:50:53;;;;;;;6.32;3.20;;;;;;;12.42;65.82;101618.88;5062991;28;20020;-74
2022/06/21 00:53:31;;;;;;;7.30;3.55;;;;;;;12.42;66.18;101624.09;5065592;28;20495;-74
2022/06/21 00:56:04;;;;;;;4.78;3.13;;;;;;;12.39;66.32;101626.75;5062565;28;20033;-74
2022/06/21 00:58:31;;;;;;;6.03;3.67;;;;;;;12.28;67.30;101622.63;5060613;28;20124;-75
2022/06/21 01:01:14;;;;;;;5.75;3.63;;;;;;;12.19;66.80;101617.59;5060247;28;20082;-75
2022/06/21 01:03:54;;;;;;;7.15;3.38;;;;;;;12.14;66.27;101612.47;5059977;28;20361;-75
2022/06/21 01:06:26;;;;;;;8.10;3.40;;;;;;;12.14;65.94;101614.19;5063633;28;20036;-74
2022/06/21 01:08:58;;;;;;;5.97;3.50;;;;;;;12.14;66.66;101615.06;5066357;28;20027;-74
2022/06/21 01:11:32;;;;;;;5.07;3.42;;;;;;;12.10;67.36;101612.56;5062048;28;20025;-75
2022/06/21 01:14:00;;;;;;;5.88;3.53;;;;;;;12.02;68.22;101614.44;5064026;28;20028;-75
2022/06/21 01:16:27;;;;;;;5.30;3.47;;;;;;;11.95;67.81;101614.56;5063042;28;20031;-75
2022/06/21 01:18:53;;;;;;;6.55;3.80;;;;;;;11.89;68.99;101609.44;5061264;28;20032;-74
2022/06/21 01:21:20;;;;;;;8.18;3.65;;;;;;;11.84;69.73;101603.44;5063395;28;20029;-75
2022/06/21 01:24:01;;;;;;;7.57;3.53;;;;;;;11.87;68.00;101603.41;5065467;28;20268;-74
2022/06/21 01:26:54;;;;;;;6.55;3.88;;;;;;;11.86;67.18;101593.84;5066373;28;20027;-75
2022/06/21 01:29:25;;;;;;;4.93;3.55;;;;;;;11.81;69.06;101585.25;5066479;28;20020;-75
2022/06/21 01:31:51;;;;;;;5.55;3.60;;;;;;;11.83;67.87;101593.91;5066084;28;20127;-74
2022/06/21 01:34:22;;;;;;;8.45;3.80;;;;;;;11.81;67.56;101591.34;5066338;28;20025;-74
2022/06/21 01:36:50;;;;;;;;;;;;;;;11.86;65.54;101601.66;5068956;28;20032;-74
2022/06/21 01:39:25;;;;;;;5.70;3.33;;;;;;;11.70;67.98;101603.69;5065708;28;19916;-74
2022/06/21 01:42:19;;;;;;;4.47;3.38;;;;;;;11.65;67.08;101602.94;5065063;28;20033;-74
2022/06/21 01:44:50;;;;;;;5.60;3.58;;;;;;;11.64;68.19;101607.28;5063745;28;20047;-75
2022/06/21 01:47:29;;;;;;;6.38;3.88;;;;;;;11.65;68.11;101606.38;5065176;28;20043;-75
2022/06/21 01:50:01;;;;;;;7.45;4.05;;;;;;;11.63;67.66;101604.72;5079277;28;20028;-75
2022/06/21 01:52:30;;;;;;;7.35;4.40;;;;;;;11.61;68.08;101603.88;5079771;28;20438;-75
2022/06/21 01:55:05;;;;;;;7.22;4.63;;;;;;;11.57;67.93;101597.88;5065276;28;20043;-75
2022/06/21 01:57:30;;;;;;;5.53;3.80;;;;;;;11.53;67.74;101598.78;5067303;28;20344;-74
2022/06/21 01:59:58;;;;;;;8.55;3.95;;;;;;;11.48;68.33;101603.22;5066479;28;20024;-74
2022/06/21 02:02:29;;;;;;;5.60;3.13;;;;;;;11.44;67.73;101596.38;5064514;28;20060;-74
2022/06/21 02:05:07;;;;;;;3.70;2.50;;;;;;;11.39;66.87;101580.78;5061033;28;20090;-74
2022/06/21 02:07:38;;;;;;;4.30;3.00;;;;;;;11.32;68.79;101569.63;5064920;28;20028;-74
2022/06/21 02:10:09;;;;;;;5.28;3.10;;;;;;;11.28;68.52;101570.53;5066704;28;20074;-74
2022/06/21 02:12:39;;;;;;;4.10;2.92;;;;;;;11.23;68.96;101567.19;5067944;28;20036;-74
2022/06/21 02:15:08;;;;;;;5.22;3.58;;;;;;;11.13;69.48;101583.81;5067772;28;20499;-75
2022/06/21 02:17:40;;;;;;;6.53;3.70;;;;;;;11.05;70.31;101578.75;5064745;28;20448;-74
2022/06/21 02:20:29;;;;;;;8.68;4.25;;;;;;;11.04;69.90;101577.03;5068238;28;20540;-74
2022/06/21 02:22:54;;;;;;;9.43;4.47;;;;;;;11.02;71.22;101574.44;5067322;28;20488;-74
2022/06/21 02:25:23;;;;;;;8.10;4.47;;;;;;;11.00;70.81;101570.16;5066173;28;20048;-74
2022/06/21 02:27:50;;;;;;;6.60;3.97;;;;;;;10.96;70.24;101574.53;5065180;28;21437;-74
2022/06/21 02:30:22;;;;;;;9.15;4.15;;;;;;;10.97;69.86;101565.84;5065878;28;20024;-74
2022/06/21 02:32:49;;;;;;;8.50;4.97;;;;;;;10.92;71.20;101558.13;5063450;28;20028;-74
2022/06/21 02:35:23;;;;;;;7.85;4.72;;;;;;;10.92;71.20;101554.66;5064398;28;20073;-74
2022/06/21 02:37:51;;;;;;;8.80;4.63;;;;;;;10.92;71.47;101552.06;5069135;28;20086;-74
2022/06/21 02:40:20;;;;;;;7.65;5.10;;;;;;;10.92;71.20;101546.84;5068837;28;20415;-74
2022/06/21 02:42:47;;;;;;;8.60;4.97;;;;;;;10.89;71.29;101526.06;5070304;28;20029;-74
2022/06/21 02:45:25;;;;;;;6.28;5.03;;;;;;;10.88;70.08;101524.34;5074754;28;20037;-75
2022/06/21 02:47:53;;;;;;;8.13;4.70;;;;;;;10.85;71.72;101508.78;5065899;28;20052;-74
2022/06/21 02:50:55;;;;;;;9.88;5.55;;;;;;;10.85;69.96;101527.84;5064850;28;20032;-74
2022/06/21 02:53:27;;;;;;;5.85;4.10;;;;;;;10.81;70.52;101528.81;5056118;28;20044;-74
2022/06/21 02:55:59;;;;;;;6.47;4.45;;;;;;;10.73;70.67;101528.91;5063038;28;20039;-74
2022/06/21 02:58:36;;;;;;;7.18;4.35;;;;;;;10.68;71.40;101528.13;5063423;28;20059;-74
2022/06/21 03:01:05;;;;;;;6.20;4.50;;;;;;;10.65;72.15;101532.53;5068706;28;20025;-74
2022/06/21 03:03:33;;;;;;;7.38;4.80;;;;;;;10.65;72.33;101533.38;5064179;28;20617;-74
2022/06/21 03:06:03;;;;;;;6.95;4.55;;;;;;;10.66;73.00;101535.09;5061980;28;20107;-74
2022/06/21 03:08:31;;;;;;;6.00;3.97;;;;;;;10.68;72.76;101542.84;5063123;28;20042;-74
2022/06/21 03:10:56;;;;;;;8.00;4.68;;;;;;;10.67;72.72;101551.56;5063159;28;20039;-74
2022/06/21 03:13:33;;;;;;;7.28;4.05;;;;;;;10.65;71.95;101554.19;5062534;28;20028;-74
2022/06/21 03:16:03;;;;;;;6.57;3.88;;;;;;;10.61;72.62;101547.28;5061362;28;20460;-74
2022/06/21 03:18:33;;;;;;;5.93;4.03;;;;;;;10.60;73.23;101555.97;5064319;28;20029;-75
2022/06/21 03:21:03;;;;;;;6.90;4.47;;;;;;;10.59;73.76;101554.28;5067396;28;20047;-74
2022/06/21 03:23:28;;;;;;;12.25;4.90;;;;;;;10.61;73.94;101562.91;5063106;28;20039;-74
2022/06/21 03:25:59;;;;;;;6.68;4.53;;;;;;;10.63;72.83;101561.16;5063335;28;20028;-74
2022/06/21 03:28:35;;;;;;;10.35;5.05;;;;;;;10.66;73.64;101568.06;5062756;28;20094;-74
2022/06/21 03:31:00;;;;;;;6.03;4.45;;;;;;;10.60;73.17;101574.19;5061392;28;20028;-74
2022/06/21 03:33:26;;;;;;;12.20;4.85;;;;;;;10.58;73.44;101576.00;5066540;28;20115;-74
2022/06/21 03:35:52;;;;;;;6.85;4.50;;;;;;;10.59;73.73;101572.50;5063235;28;20475;-74
2022/06/21 03:38:17;;;;;;;9.98;4.80;;;;;;;10.63;72.14;101571.56;5064207;28;20316;-74
2022/06/21 03:43:34;;;;;;;7.97;4.63;;;;;;;10.67;71.14;101560.22;5061716;28;20452;-74
2022/06/21 03:46:06;;;;;;;8.18;4.82;;;;;;;10.66;71.26;101555.91;5064701;28;20053;-74
2022/06/21 03:48:38;;;;;;;8.07;4.57;;;;;;;10.65;70.67;101543.78;5061893;28;20464;-74
2022/06/21 03:51:12;;;;;;;7.68;4.90;;;;;;;10.63;70.38;101524.72;5064514;28;20066;-74
2022/06/21 03:53:48;;;;;;;7.45;4.45;;;;;;;10.58;70.82;101526.56;5060873;28;20035;-74
2022/06/21 03:56:21;;;;;;;6.25;4.05;;;;;;;10.50;70.80;101528.38;5063896;28;20090;-74
2022/06/21 03:59:00;;;;;;;7.05;4.70;;;;;;;10.44;71.42;101524.13;5065347;28;20173;-74
2022/06/21 04:01:38;;;;;;;6.35;4.60;;;;;;;10.44;71.65;101522.38;5063060;28;20024;-75
2022/06/21 04:04:51;;;;;;;8.82;4.35;;;;;;;10.46;70.66;101519.78;5060723;28;20031;-74
2022/06/21 04:07:29;;;;;;;5.85;4.30;;;;;;;10.41;71.53;101524.19;5062412;28;20314;-74
2022/06/21 04:10:16;;;;;;;8.43;4.47;;;;;;;10.41;72.42;101525.06;5064216;28;20025;-74
2022/06/21 04:13:03;;;;;;;8.57;4.45;;;;;;;10.42;73.68;101529.34;5064010;28;20364;-74
2022/06/21 04:15:28;;;;;;;7.55;5.18;;;;;;;10.46;74.48;101535.38;5063493;28;20039;-74
2022/06/21 04:18:08;;;;;;;8.45;5.10;;;;;;;10.48;74.01;101537.06;5061263;28;20024;-74
2022/06/21 04:20:50;;;;;;;8.65;5.75;;;;;;;10.52;73.31;101539.63;5063528;28;20024;-75
2022/06/21 04:23:21;;;;;;;;;;;;;;;10.61;70.41;101536.88;5068902;28;20035;-74
2022/06/21 04:26:07;;;;;;;8.15;5.40;;;;;;;10.64;72.49;101534.25;5064661;28;19935;-74
2022/06/21 04:28:44;;;;;;;11.57;6.60;;;;;;;10.66;73.31;101535.09;5061397;28;20025;-74
2022/06/21 04:31:21;;;;;;;7.65;6.05;;;;;;;10.65;73.99;101535.97;5063593;28;20654;-74
2022/06/21 04:33:56;;;;;;;8.82;6.03;;;;;;;10.68;74.14;101535.06;5062513;28;20052;-74
2022/06/21 04:36:41;;;;;;;9.75;6.10;;;;;;;10.73;72.40;101528.91;5061380;28;20024;-74
2022/06/21 04:39:33;;;;;;;9.88;6.45;;;;;;;10.80;73.27;101539.22;5070417;28;20078;-74
2022/06/21 04:42:04;;;;;;;;;;;;;;;10.87;70.95;101528.69;5060662;28;20487;-75
2022/06/21 04:44:51;;;;;;;11.23;6.20;;;;;;;10.89;73.79;101523.47;5064293;28;19912;-74
2022/06/21 04:47:30;;;;;;;8.85;6.13;;;;;;;10.98;72.29;101523.31;5067186;28;20029;-73
2022/06/21 04:50:17;;;;;;;11.90;6.35;;;;;;;11.08;72.16;101518.81;5060815;28;20033;-75
2022/06/21 04:52:49;;;;;;;9.48;5.88;;;;;;;11.15;73.75;101515.22;5065232;28;20020;-74
2022/06/21 04:55:16;;;;;;;9.50;6.18;;;;;;;11.23;73.75;101517.69;5067983;28;20108;-74
2022/06/21 04:57:42;;;;;;;10.95;6.28;;;;;;;11.28;73.73;101510.63;5066362;28;20508;-74
2022/06/21 05:00:16;;;;;;;11.20;6.13;;;;;;;11.35;72.92;101503.59;5064904;28;20055;-74
2022/06/21 05:02:55;;;;;;;10.18;6.53;;;;;;;11.42;72.92;101512.16;5070198;28;20024;-74
2022/06/21 05:05:25;;;;;;;10.38;6.03;;;;;;;11.49;74.02;101521.56;5067067;28;20089;-74
2022/06/21 05:07:52;;;;;;;11.13;5.60;;;;;;;11.58;73.66;101518.78;5066669;28;20506;-74
2022/06/21 05:10:28;;;;;;;9.80;6.03;;;;;;;11.64;73.15;101508.22;5066234;28;20516;-74
2022/06/21 05:12:56;;;;;;;8.52;5.90;;;;;;;11.73;74.13;101512.41;5072119;28;20032;-74
2022/06/21 05:15:26;;;;;;;8.48;5.85;;;;;;;11.81;73.83;101517.47;5069060;28;20131;-74
2022/06/21 05:17:58;;;;;;;10.50;6.22;;;;;;;11.91;73.68;101513.81;5066875;28;20032;-74
2022/06/21 05:20:29;;;;;;;10.90;6.22;;;;;;;12.00;73.78;101512.78;5067661;28;20024;-73
2022/06/21 05:23:01;;;;;;;8.88;5.93;;;;;;;12.09;73.13;101512.56;5070923;28;20029;-74
2022/06/21 05:25:40;;;;;;;13.15;6.18;;;;;;;12.17;72.66;101512.41;5067501;28;20471;-74
2022/06/21 05:28:27;;;;;;;8.90;5.50;;;;;;;12.26;73.12;101512.22;5066922;28;20012;-73
2022/06/21 05:31:00;;;;;;;9.07;6.10;;;;;;;12.36;72.61;101506.78;5069293;28;20038;-74
2022/06/21 05:33:40;;;;;;;8.48;5.90;;;;;;;12.43;71.97;101500.56;5069177;28;20528;-74
2022/06/21 05:36:11;;;;;;;8.48;5.30;;;;;;;12.50;72.86;101498.66;5067195;28;20471;-74
2022/06/21 05:38:56;;;;;;;7.68;4.85;;;;;;;12.58;72.55;101505.41;5066286;28;20463;-74
2022/06/21 05:41:30;;;;;;;7.97;4.53;;;;;;;12.67;71.92;101498.25;5070375;28;20195;-73
2022/06/21 05:44:09;;;;;;;5.60;4.57;;;;;;;12.77;71.01;101499.75;5067566;28;20052;-74
2022/06/21 05:46:48;;;;;;;8.68;4.28;;;;;;;12.84;72.01;101510.91;5064215;28;20085;-74
2022/06/21 05:49:21;;;;;;;8.27;3.83;;;;;;;12.93;71.50;101515.03;5060053;28;20020;-74
2022/06/21 05:51:48;;;;;;;10.20;3.97;;;;;;;13.01;71.10;101518.31;5064803;28;20027;-73
2022/06/21 05:54:16;;;;;;;6.93;3.70;;;;;;;13.08;71.51;101509.44;5061182;28;20043;-74
2022/06/21 05:56:42;;;;;;;7.78;4.18;;;;;;;13.17;71.12;101513.56;5065083;28;20502;-74
2022/06/21 05:59:15;;;;;;;5.85;3.30;;;;;;;13.25;70.08;101513.38;5068451;28;20123;-74
2022/06/21 06:01:52;;;;;;;5.75;3.40;;;;;;;13.31;69.47;101515.81;5064870;28;20024;-74
2022/06/21 06:04:27;;;;;;;6.57;3.30;;;;;;;13.37;69.55;101531.31;5073841;28;20033;-74
2022/06/21 06:06:56;;;;;;;5.38;3.22;;;;;;;13.41;69.39;101525.16;5068402;28;20032;-74
2022/06/21 06:09:26;;;;;;;5.10;3.05;;;;;;;13.47;69.12;101539.81;5066929;28;20074;-73
2022/06/21 06:12:23;;;;;;;7.45;3.20;;;;;;;13.55;69.06;101534.38;5068216;28;20074;-74
2022/06/21 06:14:57;;;;;;;7.03;3.30;;;;;;;13.64;69.57;101540.22;5070138;28;20086;-74
2022/06/21 06:17:34;;;;;;;5.03;3.20;;;;;;;13.76;70.46;101549.47;5065641;28;20438;-74
2022/06/21 06:20:09;;;;;;;5.43;2.38;;;;;;;13.85;69.30;101547.50;5069656;28;20020;-74
2022/06/21 06:22:43;;;;;;;7.25;3.08;;;;;;;13.96;69.23;101548.06;5068597;28;20059;-74
2022/06/21 06:25:23;;;;;;;9.65;3.22;;;;;;;14.05;69.43;101555.63;5069729;28;20040;-74
2022/06/21 06:28:11;;;;;;;6.82;3.00;;;;;;;14.17;68.04;101561.44;5069693;28;20074;-74
2022/06/21 06:30:49;;;;;;;6.78;2.90;;;;;;;14.24;67.24;101561.22;5069255;28;20108;-74
2022/06/21 06:33:22;;;;;;;7.95;2.88;;;;;;;14.30;67.43;101560.16;5067986;28;20021;-74
2022/06/21 06:35:49;;;;;;;6.18;3.00;;;;;;;14.38;68.46;101565.16;5067176;28;20101;-74
2022/06/21 06:38:16;;;;;;;5.75;2.90;;;;;;;14.45;66.67;101569.31;5067853;28;20048;-74
2022/06/21 06:40:46;;;;;;;5.47;3.00;;;;;;;14.50;66.95;101566.56;5064472;28;20025;-74
2022/06/21 06:43:21;;;;;;;5.40;2.75;;;;;;;14.57;67.12;101565.44;5073612;28;20031;-74
2022/06/21 06:45:48;;;;;;;5.68;2.95;;;;;;;14.63;66.39;101567.91;5070533;28;20749;-74
2022/06/21 06:48:22;;;;;;;6.28;3.00;;;;;;;14.70;66.58;101566.81;5074190;28;20020;-73
2022/06/21 06:50:59;;;;;;;6.65;2.90;;;;;;;14.77;66.56;101559.66;5071350;28;20024;-73
2022/06/21 06:53:34;;;;;;;6.78;3.10;;;;;;;14.85;65.87;101568.09;5067639;28;20117;-74
2022/06/21 06:56:15;;;;;;;5.90;2.78;;;;;;;14.93;65.88;101570.47;5068390;28;20020;-74
2022/06/21 06:58:54;;;;;;;7.28;3.13;;;;;;;15.00;65.22;101572.00;5068002;28;20576;-74
2022/06/21 07:01:27;;;;;;;5.47;2.88;;;;;;;15.06;63.54;101565.69;5068846;28;20119;-75
2022/06/21 07:04:00;;;;;;;6.30;2.72;;;;;;;15.12;64.57;101565.47;5067847;28;20024;-75
2022/06/21 07:06:43;;;;;;;6.55;2.72;;;;;;;15.20;64.62;101572.22;5067099;28;20482;-74
2022/06/21 07:09:19;;;;;;;7.82;2.95;;;;;;;15.22;63.67;101576.50;5070940;28;20093;-75
2022/06/21 07:11:50;;;;;;;9.35;3.20;;;;;;;15.27;64.62;101574.59;5070592;28;20060;-74
2022/06/21 07:14:20;;;;;;;9.68;3.25;;;;;;;15.29;63.65;101578.03;5068376;28;20491;-74
2022/06/21 07:16:51;;;;;;;6.65;3.15;;;;;;;15.30;63.53;101574.50;5064864;28;20044;-74
2022/06/21 07:19:16;;;;;;;7.20;2.58;;;;;;;15.33;63.21;101574.41;5068354;28;20048;-74
2022/06/21 07:21:41;;;;;;;5.45;2.88;;;;;;;15.38;62.78;101560.25;5071149;28;20067;-75
2022/06/21 07:24:16;;;;;;;4.85;2.80;;;;;;;15.42;64.02;101565.34;5070917;28;20028;-75
2022/06/21 07:27:11;;;;;;;6.00;2.25;;;;;;;15.48;63.06;101573.00;5067424;28;20040;-73
2022/06/21 07:30:08;;;;;;;5.40;2.50;;;;;;;15.52;62.20;101560.66;5067272;28;20124;-74
2022/06/21 07:32:43;;;;;;;4.97;2.42;;;;;;;15.54;62.85;101552.72;5068625;28;20031;-74
2022/06/21 07:35:14;;;;;;;5.07;2.53;;;;;;;15.57;60.89;101545.59;5077345;28;20028;-74
2022/06/21 07:37:46;;;;;;;5.75;2.40;;;;;;;15.62;61.55;101550.69;5078462;28;20387;-74
2022/06/21 07:40:19;;;;;;;4.97;2.35;;;;;;;15.65;60.74;101554.97;5070267;28;20107;-74
2022/06/21 07:42:54;;;;;;;6.85;2.72;;;;;;;15.71;62.00;101557.38;5081635;28;20024;-74
2022/06/21 07:45:26;;;;;;;4.90;2.22;;;;;;;15.74;59.10;101562.50;5070409;28;20023;-74
2022/06/21 07:48:07;;;;;;;3.53;1.98;;;;;;;15.81;60.64;101560.50;5070877;28;20458;-74
2022/06/21 07:50:39;;;;;;;4.90;2.35;;;;;;;15.87;58.58;101558.56;5073986;28;20090;-74
2022/06/21 07:53:13;;;;;;;5.30;2.65;;;;;;;15.91;59.87;101554.06;5070972;28;20028;-74
2022/06/21 07:55:48;;;;;;;5.53;2.67;;;;;;;15.95;59.93;101557.41;5071157;28;20042;-74
2022/06/21 07:58:21;;;;;;;3.67;2.25;;;;;;;15.97;58.33;101552.97;5075466;28;20491;-74
2022/06/21 08:06:41;;;;;;;6.20;2.67;;;;;;;15.98;58.05;101544.19;5068735;28;20147;-74
2022/06/21 08:09:13;;;;;;;4.40;2.47;;;;;;;16.04;58.93;101544.81;5069869;28;20025;-74
2022/06/21 08:11:41;;;;;;;4.63;2.35;;;;;;;16.09;57.08;101547.25;5070245;28;20024;-74
2022/06/21 08:14:08;;;;;;;4.28;2.00;;;;;;;16.15;57.82;101541.78;5069552;28;20032;-74
2022/06/21 08:16:43;;;;;;;4.20;2.20;;;;;;;16.24;58.88;101533.53;5067517;28;20024;-73
2022/06/21 08:19:20;;;;;;;5.05;2.30;;;;;;;16.32;57.60;101521.91;5069985;28;20032;-74
2022/06/21 08:21:51;;;;;;;4.53;2.15;;;;;;;16.37;59.44;101519.97;5070402;28;20035;-74
2022/06/21 08:24:25;;;;;;;3.90;1.92;;;;;;;16.48;59.14;101522.16;5069210;28;20059;-74
2022/06/21 08:26:59;;;;;;;4.60;1.98;;;;;;;16.53;57.69;101528.94;5073893;28;20032;-74
2022/06/21 08:29:44;;;;;;;5.18;2.45;;;;;;;16.55;56.76;101534.13;5073466;28;20035;-74
2022/06/21 08:32:22;;;;;;;5.10;2.25;;;;;;;16.51;57.73;101532.53;5077248;28;20492;-74
2022/06/21 08:34:50;;;;;;;4.40;2.22;;;;;;;16.56;58.00;101535.00;5073236;28;20035;-73
2022/06/21 08:37:25;;;;;;;4.97;2.20;;;;;;;16.62;57.18;101529.47;5069995;28;20028;-74
2022/06/21 08:40:13;;;;;;;3.47;1.92;;;;;;;16.71;57.91;101517.72;5078269;28;20043;-75
2022/06/21 08:42:42;;;;;;;4.22;2.15;;;;;;;16.74;54.16;101513.19;5082167;28;20383;-74
2022/06/21 08:45:43;;;;;;;5.05;2.13;;;;;;;16.82;54.79;101511.13;5091223;28;20028;-74
2022/06/21 08:48:27;;;;;;;4.05;1.90;;;;;;;16.96;56.95;101496.56;5072730;28;20020;-74
2022/06/21 08:50:58;;;;;;;6.43;2.30;;;;;;;17.03;54.52;101487.53;5082097;28;20023;-74
2022/06/21 08:53:55;;;;;;;5.20;2.13;;;;;;;17.07;55.43;101499.63;5087236;28;20062;-74
2022/06/21 08:56:37;;;;;;;6.38;2.28;;;;;;;17.10;55.86;101494.22;5072208;28;20115;-74
2022/06/21 08:59:08;;;;;;;4.57;2.05;;;;;;;17.20;55.87;101483.31;5090775;28;20332;-74
2022/06/21 09:01:49;;;;;;;6.22;2.15;;;;;;;17.26;56.36;101468.13;5073841;28;20031;-74
2022/06/21 09:04:45;;;;;;;6.20;2.30;;;;;;;17.28;55.69;101450.50;5070367;28;20039;-74
2022/06/21 09:07:40;;;;;;;3.65;2.00;;;;;;;17.29;56.27;101448.72;5066117;28;20032;-74
2022/06/21 09:10:25;;;;;;;5.40;2.55;;;;;;;17.28;55.81;101445.25;5071749;28;20035;-74
2022/06/21 09:13:00;;;;;;;5.38;2.47;;;;;;;17.28;55.72;101444.38;5069915;28;20051;-74
2022/06/21 09:15:33;;;;;;;5.28;2.40;;;;;;;17.28;55.37;101449.63;5070033;28;20028;-74
2022/06/21 09:18:18;;;;;;;5.10;2.45;;;;;;;17.27;55.74;101455.81;5068390;28;20521;-74
2022/06/21 09:21:01;;;;;;;4.65;2.13;;;;;;;17.27;55.14;101459.31;5069558;28;20024;-74
2022/06/21 09:23:49;;;;;;;3.78;2.20;;;;;;;17.29;54.69;101459.22;5086033;28;20052;-75
2022/06/21 09:26:43;;;;;;;5.97;2.10;;;;;;;17.35;55.84;101450.22;5072931;28;20020;-74
2022/06/21 09:29:38;;;;;;;5.20;2.35;;;;;;;17.43;55.80;101442.84;5068904;28;20036;-74
2022/06/21 09:32:21;;;;;;;5.57;2.63;;;;;;;17.54;53.77;101445.84;5067008;28;20016;-75
2022/06/21 09:35:17;;;;;;;9.60;2.47;;;;;;;17.69;55.02;101436.41;5069039;28;20502;-74
2022/06/21 09:38:09;;;;;;;5.85;2.80;;;;;;;17.82;54.73;101422.66;5068338;28;20027;-74
2022/06/21 09:40:42;;;;;;;5.68;2.20;;;;;;;17.95;53.91;101429.03;5069020;28;20111;-74
2022/06/21 09:43:15;;;;;;;4.55;2.35;;;;;;;18.05;54.30;101414.56;5072345;28;20119;-74
2022/06/21 09:46:06;;;;;;;4.07;2.13;;;;;;;18.11;55.12;101417.81;5080217;28;20104;-74
2022/06/21 09:48:53;;;;;;;4.22;2.28;;;;;;;18.14;54.64;101422.94;5070546;28;20012;-74
2022/06/21 09:51:21;;;;;;;4.85;2.35;;;;;;;18.17;54.61;101422.78;5072801;28;20087;-74
2022/06/21 09:53:55;;;;;;;3.70;2.33;;;;;;;18.13;51.72;101421.22;5073389;28;20471;-74
2022/06/21 09:56:37;;;;;;;2.85;1.80;;;;;;;18.15;54.52;101424.63;5069860;28;20119;-74
2022/06/21 09:59:09;;;;;;;4.72;2.10;;;;;;;18.16;54.04;101423.72;5067320;28;20136;-75
2022/06/21 10:01:45;;;;;;;6.35;2.80;;;;;;;18.18;52.74;101424.50;5070857;28;20502;-75
2022/06/21 10:04:17;;;;;;;4.50;2.35;;;;;;;18.24;53.74;101418.94;5063489;28;20112;-75
2022/06/21 10:07:03;;;;;;;5.07;2.40;;;;;;;18.25;51.81;101412.75;5071102;28;20042;-74
2022/06/21 10:09:58;;;;;;;3.67;2.00;;;;;;;18.23;53.69;101422.50;5065804;28;20411;-74
2022/06/21 10:12:48;;;;;;;3.88;2.30;;;;;;;18.27;54.45;101418.78;5068042;28;20475;-74
2022/06/21 10:15:39;;;;;;;3.40;2.10;;;;;;;18.35;53.93;101411.34;5070078;28;20062;-74
2022/06/21 10:18:20;;;;;;;4.35;2.40;;;;;;;18.34;51.79;101414.91;5069293;28;20487;-74
2022/06/21 10:21:11;;;;;;;3.08;2.00;;;;;;;18.35;52.83;101423.69;5060870;28;20220;-74
2022/06/21 10:24:17;;;;;;;5.50;2.20;;;;;;;18.39;52.73;101427.00;5069655;28;20078;-73
2022/06/21 10:27:02;;;;;;;2.95;2.00;;;;;;;18.45;52.42;101421.41;5068353;28;20128;-74
2022/06/21 10:30:05;;;;;;;3.95;2.20;;;;;;;18.53;52.64;101429.81;5060092;28;20032;-75
2022/06/21 10:32:58;;;;;;;3.78;1.98;;;;;;;18.57;51.31;101419.94;5065272;28;20036;-76
2022/06/21 10:35:45;;;;;;;2.75;1.80;;;;;;;18.65;51.11;101423.91;5071864;28;20025;-74
2022/06/21 10:38:24;;;;;;;4.93;2.50;;;;;;;18.75;49.41;101426.94;5067617;28;20033;-73
2022/06/21 10:41:21;;;;;;;3.33;2.13;;;;;;;18.85;50.72;101424.69;5070367;28;20104;-74
2022/06/21 10:44:03;;;;;;;3.22;1.70;;;;;;;18.95;49.29;101425.09;5046281;28;20064;-75
2022/06/21 10:46:49;;;;;;;5.28;1.63;;;;;;;19.00;48.24;101422.22;5066222;28;20024;-75
2022/06/21 10:49:23;;;;;;;4.43;1.90;;;;;;;19.04;50.35;101418.47;5065920;28;20062;-74
2022/06/21 10:52:11;;;;;;;4.13;2.15;;;;;;;19.08;48.51;101412.13;5059937;28;20024;-74
2022/06/21 10:54:50;;;;;;;4.38;1.90;;;;;;;19.17;49.25;101424.81;5067849;28;20040;-74
2022/06/21 10:57:24;;;;;;;3.53;1.98;;;;;;;19.22;50.14;101437.75;5066214;28;20047;-74
2022/06/21 11:02:56;;;;;;;4.55;1.60;;;;;;;19.21;49.99;101431.63;5066874;28;20063;-74
2022/06/21 11:05:46;;;;;;;2.20;1.30;;;;;;;19.20;48.83;101424.66;5061909;28;20064;-74
2022/06/21 11:08:41;;;;;;;2.47;1.15;;;;;;;19.23;48.87;101427.13;5061652;28;20028;-74
2022/06/21 11:11:33;;;;;;;2.67;1.23;;;;;;;19.21;48.01;101429.00;5064464;28;20710;-75
2022/06/21 11:14:04;;;;;;;2.60;1.30;;;;;;;19.25;46.94;101427.03;5063292;28;20028;-74
2022/06/21 11:16:46;;;;;;;4.85;1.55;;;;;;;19.32;48.56;101425.78;5059458;28;21602;-74
2022/06/21 11:19:23;;;;;;;3.00;1.45;;;;;;;19.40;47.45;101428.03;5075950;28;20056;-74
2022/06/21 11:22:14;;;;;;;3.13;1.30;;;;;;;19.47;48.15;101420.63;5058507;28;20028;-74
2022/06/21 11:25:17;;;;;;;3.00;1.50;;;;;;;19.54;47.54;101430.75;5058616;28;20116;-75
2022/06/21 11:28:11;;;;;;;2.70;1.50;;;;;;;19.60;47.12;101426.09;5061457;28;20043;-74
2022/06/21 11:30:49;;;;;;;3.55;1.45;;;;;;;19.58;45.33;101427.97;5059714;28;20024;-74
2022/06/21 11:33:33;;;;;;;2.50;1.38;;;;;;;19.62;47.14;101434.78;5064673;28;20131;-75
2022/06/21 11:36:11;;;;;;;3.10;1.45;;;;;;;19.65;47.97;101424.03;5062810;28;20024;-74
2022/06/21 11:38:58;;;;;;;3.78;1.50;;;;;;;19.66;46.50;101425.75;5065935;28;20055;-74
2022/06/21 11:44:54;;;;;;;2.05;1.30;;;;;;;19.78;45.46;101413.66;5062404;28;20380;-74
2022/06/21 11:47:39;;;;;;;2.40;1.00;;;;;;;19.84;45.96;101424.72;5064773;28;20024;-74
2022/06/21 11:50:23;;;;;;;1.02;0.90;;;;;;;19.89;47.37;101423.66;5058708;28;20050;-74
2022/06/21 11:53:00;;;;;;;2.00;0.90;;;;;;;19.91;47.87;101419.13;5064886;28;20099;-74
2022/06/21 11:55:51;;;;;;;2.40;1.10;;;;;;;19.90;45.54;101414.78;5057928;28;20060;-75
2022/06/21 11:58:21;;;;;;;4.68;1.50;;;;;;;19.92;45.37;101421.69;5059258;28;20487;-74
2022/06/21 12:01:01;;;;;;;2.53;1.30;;;;;;;19.93;47.55;101422.56;5061712;28;20071;-74
2022/06/21 12:03:36;;;;;;;2.50;1.17;;;;;;;19.91;45.92;101403.28;5059603;28;20116;-74
2022/06/21 12:06:11;;;;;;;1.60;1.20;;;;;;;19.92;46.78;101405.00;5062168;28;20024;-75
2022/06/21 12:08:51;;;;;;;2.00;1.10;;;;;;;19.92;47.15;101407.66;5064483;28;20384;-75
2022/06/21 12:11:39;;;;;;;1.95;1.00;;;;;;;19.92;47.24;101394.44;5063167;28;20077;-74
2022/06/21 12:14:22;;;;;;;1.98;1.10;;;;;;;19.92;47.00;101394.44;5058898;28;20028;-75
2022/06/21 12:17:09;;;;;;;2.63;1.17;;;;;;;19.94;47.10;101397.84;5064157;28;20024;-75
2022/06/21 12:19:39;;;;;;;2.95;1.17;;;;;;;19.99;48.23;101395.78;5062322;28;20021;-75
2022/06/21 12:22:22;;;;;;;2.28;1.00;;;;;;;20.06;46.37;101397.16;5055588;28;20069;-75